• Join FlightAware (Why Join?)
  • Login
  • US Flag 
04:24PM EDT


 

Airport Tracker/Info


-or-


 

Live Flight TrackerFlight Track Log ✈ SWA318 ✈ 19-Apr-2013 ✈ KPHX - KATL

Flight Track Log - Related Links

Times and Time Zones

All times are in EDT time to prevent confusion due to time zone crossing. See the SWA318 flight status page for this flight to view local times or setup timezone preferences in your user account.

Time Position Orientation Groundspeed Altitude Reporting Facility
EDT Latitude Longitude Course Direction KTS MPH feet Rate Location/Type
12:51PM 33.4333 -111.9833 83° East 145 167 2,200  Level Phoenix TRACON
12:53PM 33.4350 -111.9022 89° East 197 227 4,200 2,040 Climbing Albuquerque Center
12:54PM 33.4219 -111.8189 101° East 261 300 7,200 3,000 Climbing Albuquerque Center
12:55PM 33.3925 -111.7328 112° Southeast 279 321 10,400 2,460 Climbing Albuquerque Center
12:56PM 33.3925 -111.6322 90° East 332 382 12,400 2,520 Climbing Albuquerque Center
12:57PM 33.5291 -111.0935 83° East  Level FlightAware Approximate
12:57PM 33.4478 -111.5075 62° Northeast 360 414 15,700  Level Albuquerque Center
12:58PM 33.4947 -111.3953 63° Northeast 376 433 18,200 2,460 Climbing Albuquerque Center
12:59PM 33.5147 -111.2650 80° East 403 464 20,800 2,280 Climbing Albuquerque Center
01:00PM 33.5303 -111.1292 82° East 413 475 23,000 1,980 Climbing Albuquerque Center
01:01PM 33.5450 -110.9881 83° East 426 490 25,000 1,980 Climbing Albuquerque Center
01:02PM 33.5744 -110.8172 78° East 435 501 27,200 1,740 Climbing Albuquerque Center
01:03PM 33.6061 -110.6744 75° East 441 507 28,700 1,380 Climbing Albuquerque Center
01:04PM 33.6378 -110.5261 76° East 454 522 30,100 1,500 Climbing Albuquerque Center
01:05PM 33.6706 -110.3764 75° East 463 533 31,800 1,620 Climbing Albuquerque Center
01:06PM 33.7061 -110.2044 76° East 465 535 33,500 1,440 Climbing Albuquerque Center
01:07PM 33.7372 -110.0578 76° East 461 531 34,900 1,140 Climbing Albuquerque Center
01:08PM 33.7706 -109.9050 75° East 469 540 35,900 840 Climbing Albuquerque Center
01:09PM 33.8017 -109.7536 76° East 469 540 36,700 480 Climbing Albuquerque Center
01:10PM 33.8336 -109.5986 76° East 476 548 37,000 120 Climbing Albuquerque Center
01:11PM 33.8714 -109.4122 76° East 480 552 37,000  Level Albuquerque Center
01:12PM 33.9033 -109.2589 76° East 476 548 37,000  Level Albuquerque Center
01:13PM 33.9353 -109.1042 76° East 477 549 37,000  Level Albuquerque Center
01:14PM 33.9656 -108.9514 77° East 475 547 37,000  Level Albuquerque Center
01:15PM 33.9969 -108.7983 76° East 473 544 37,000  Level Albuquerque Center
01:16PM 34.0333 -108.6156 76° East 471 542 37,000  Level Albuquerque Center
01:17PM 34.0622 -108.4608 77° East 473 544 37,000  Level Albuquerque Center
01:18PM 34.0944 -108.3067 76° East 475 547 37,000  Level Albuquerque Center
01:20PM 34.1233 -108.1517 77° East 476 548 37,000  Level Albuquerque Center
01:21PM 34.1550 -107.9786 77° East 475 547 37,000  Level Albuquerque Center
01:22PM 34.1833 -107.8292 77° East 468 539 37,000  Level Albuquerque Center
01:23PM 34.2144 -107.6675 77° East 476 548 37,000  Level Albuquerque Center
01:24PM 34.2447 -107.5106 77° East 479 551 37,000  Level Albuquerque Center
01:25PM 34.2739 -107.3522 77° East 481 554 37,000  Level Albuquerque Center
01:26PM 34.3039 -107.1947 77° East 481 554 37,000  Level Albuquerque Center
01:27PM 34.3394 -107.0117 77° East 480 552 37,000  Level Albuquerque Center
01:28PM 34.3675 -106.8536 78° East 483 556 37,000  Level Albuquerque Center
01:29PM 34.3939 -106.6939 79° East 486 559 37,000  Level Albuquerque Center
01:30PM 34.4147 -106.5350 81° East 484 557 37,000  Level Albuquerque Center
01:31PM 34.4392 -106.3442 81° East 483 556 37,000  Level Albuquerque Center
01:32PM 34.4608 -106.1808 81° East 485 558 37,000  Level Albuquerque Center
01:33PM 34.4808 -106.0181 81° East 485 558 37,000  Level Albuquerque Center
01:34PM 34.5014 -105.8539 81° East 488 562 37,000  Level Albuquerque Center
01:35PM 34.5236 -105.6897 81° East 489 563 37,000  Level Albuquerque Center
01:36PM 34.5419 -105.5250 82° East 489 563 37,000  Level Albuquerque Center
01:37PM 34.5653 -105.3319 82° East 492 566 37,000  Level Albuquerque Center
01:38PM 34.5864 -105.1694 81° East 488 562 37,000  Level Albuquerque Center
01:39PM 34.6044 -105.0075 82° East 482 555 37,000  Level Albuquerque Center
01:40PM 34.6242 -104.8439 82° East 486 559 37,000  Level Albuquerque Center
01:41PM 34.6442 -104.6817 81° East 485 558 37,000  Level Albuquerque Center
01:42PM 34.6633 -104.5200 82° East 483 556 37,000  Level Albuquerque Center
01:43PM 34.6842 -104.3311 82° East 483 556 37,000  Level Albuquerque Center
01:44PM 34.7031 -104.1683 82° East 485 558 37,000  Level Albuquerque Center
01:45PM 34.7203 -104.0061 83° East 485 558 37,000  Level Albuquerque Center
01:46PM 34.7369 -103.8447 83° East 482 555 37,000  Level Albuquerque Center
01:47PM 34.7553 -103.6842 82° East 480 552 37,000  Level Albuquerque Center
01:48PM 34.7728 -103.5222 82° East 480 552 37,000  Level Albuquerque Center
01:50PM 34.7919 -103.3325 83° East 482 555 37,000  Level Albuquerque Center
01:51PM 34.8083 -103.1675 83° East 487 560 37,000  Level Albuquerque Center
01:52PM 34.8256 -103.0036 83° East 487 560 37,000  Level Albuquerque Center
01:53PM 34.8428 -102.8383 83° East 488 562 37,000  Level Albuquerque Center
01:54PM 34.8594 -102.6703 83° East 494 568 37,000  Level Albuquerque Center
01:56PM 34.8917 -102.3275 83° East 499 574 37,000  Level Albuquerque Center
01:57PM 34.9081 -102.1611 83° East 499 574 37,000  Level Albuquerque Center
01:58PM 34.9275 -101.9589 83° East 504 580 37,000  Level Albuquerque Center
01:59PM 34.9422 -101.7928 84° East 501 577 37,000  Level Albuquerque Center
02:00PM 34.9575 -101.6269 84° East 501 577 37,000  Level Albuquerque Center
02:01PM 34.9731 -101.4681 83° East 500 575 37,000  Level Albuquerque Center
02:02PM 34.9872 -101.2942 84° East 502 578 37,000  Level Albuquerque Center
02:03PM 35.0039 -101.0944 84° East 499 574 37,000  Level Albuquerque Center
02:04PM 35.0156 -100.9269 85° East 499 574 37,000  Level Albuquerque Center
02:06PM 35.0436 -100.5911 84° East 499 574 37,000  Level Albuquerque Center
02:07PM 35.0594 -100.4242 83° East 498 573 37,000  Level Albuquerque Center
02:08PM 35.0722 -100.2553 85° East 495 570 37,000  Level Albuquerque Center
02:09PM 35.0861 -100.0544 85° East 495 570 37,000  Level Albuquerque Center
02:10PM 35.0994 -99.8881 84° East 494 568 37,000  Level Albuquerque Center
02:11PM 35.1108 -99.7200 85° East 496 571 37,000  Level Albuquerque Center
02:12PM 35.1242 -99.5525 84° East 497 572 37,000  Level Albuquerque Center
02:13PM 35.1342 -99.3786 86° East 498 573 37,000  Level Fort Worth Center
02:14PM 35.1450 -99.2111 85° East 498 573 37,000  Level Fort Worth Center
02:15PM 35.1578 -99.0439 85° East 498 573 37,000  Level Fort Worth Center
02:16PM 35.1703 -98.8739 85° East 498 573 37,000  Level Fort Worth Center
02:17PM 35.1806 -98.7064 86° East 498 573 37,000  Level Fort Worth Center
02:18PM 35.1925 -98.5389 85° East 498 573 37,000  Level Fort Worth Center
02:19PM 35.2022 -98.3689 86° East 498 573 37,000  Level Fort Worth Center
02:20PM 35.2119 -98.2011 86° East 498 573 37,000  Level Fort Worth Center
02:21PM 35.2211 -98.0311 86° East 498 573 37,000  Level Fort Worth Center
02:22PM 35.2322 -97.8583 85° East 498 573 37,000  Level Fort Worth Center
02:23PM 35.2411 -97.6881 86° East 498 573 37,000  Level Fort Worth Center
02:24PM 35.2497 -97.5153 86° East 498 573 37,000 420 Level Fort Worth Center
02:25PM 35.2644 -97.3372 84° East 509 586 37,900 780 Climbing Fort Worth Center
02:26PM 35.2683 -97.1592 88° East 514 592 38,600 540 Climbing Fort Worth Center
02:27PM 35.2700 -96.9839 89° East 514 592 39,000 180 Climbing Fort Worth Center
02:28PM 35.2692 -96.8083 90° East 514 592 39,000  Level Fort Worth Center
02:29PM 35.2661 -96.6331 91° East 514 592 39,000  Level Fort Worth Center
02:30PM 35.2628 -96.4575 91° East 514 592 39,000  Level Fort Worth Center
02:31PM 35.2614 -96.2822 91° East 514 592 39,000  Level Fort Worth Center
02:32PM 35.2597 -96.1067 91° East 514 592 39,000  Level Fort Worth Center
02:34PM 35.2556 -95.7553 91° East 520 598 39,000  Level Memphis Center
02:35PM 35.2528 -95.5769 91° East 520 598 39,000  Level Memphis Center
02:36PM 35.2475 -95.4014 92° East 520 598 39,000  Level Memphis Center
02:37PM 35.2442 -95.2231 91° East 520 598 39,000  Level Memphis Center
02:38PM 35.2406 -95.0450 91° East 520 598 39,000  Level Memphis Center
02:39PM 35.2367 -94.8642 91° East 520 598 39,000  Level Memphis Center
02:40PM 35.2306 -94.6836 92° East 520 598 39,000  Level Memphis Center
02:41PM 35.2244 -94.5003 92° East 532 612 39,000  Level Memphis Center
02:42PM 35.2200 -94.3169 92° East 538 619 39,000  Level Memphis Center
02:43PM 35.2128 -94.1414 93° East 538 619 39,000  Level Memphis Center
02:44PM 35.2081 -93.9556 92° East 538 619 39,000  Level Memphis Center
02:45PM 35.2025 -93.7750 92° East 538 619 39,000  Level Memphis Center
02:46PM 35.1969 -93.5942 92° East 538 619 39,000  Level Memphis Center
02:47PM 35.1889 -93.4136 93° East 538 619 39,000  Level Memphis Center
02:48PM 35.1850 -93.2331 91° East 533 613 39,000  Level Memphis Center
02:49PM 35.1786 -93.0525 92° East 533 613 39,000  Level Memphis Center
02:50PM 35.1700 -92.8667 93° East 538 619 39,000  Level Memphis Center
02:51PM 35.1606 -92.6989 94° East 543 625 39,000  Level Memphis Center
02:52PM 35.1556 -92.5183 92° East 548 631 39,000  Level Memphis Center
02:53PM 35.1439 -92.3378 94° East 541 623 39,000  Level Memphis Center
02:54PM 35.1364 -92.1572 93° East 536 617 39,000  Level Memphis Center
02:55PM 35.1303 -91.9769 92° East 536 617 39,000  Level Memphis Center
02:56PM 35.1200 -91.7939 94° East 536 617 39,000  Level Memphis Center
02:57PM 35.1094 -91.6161 94° East 536 617 39,000  Level Memphis Center
02:58PM 35.1050 -91.4333 92° East 536 617 39,000  Level Memphis Center
02:59PM 35.0919 -91.2428 95° East 529 609 39,000  Level Memphis Center
03:00PM 35.0806 -91.0625 94° East 529 609 39,000  Level Memphis Center
03:01PM 35.0731 -90.8822 93° East 535 616 39,000  Level Memphis Center
03:02PM 35.0611 -90.7047 95° East 535 616 39,000  Level Memphis Center
03:03PM 35.0511 -90.5269 94° East 530 610 39,000  Level Memphis Center
03:05PM 35.0300 -90.1644 94° East 540 621 39,000  Level Memphis Center
03:06PM 35.0172 -89.9792 95° East 540 621 39,000  Level Memphis Center
03:07PM 35.0000 -89.8197 97° East 540 621 39,000  Level Memphis Center
03:08PM 34.9697 -89.6322 101° East 545 627 39,000  Level Memphis Center
03:09PM 34.9372 -89.4428 102° East 533 613 39,000  Level Memphis Center
03:10PM 34.9108 -89.2706 101° East 522 601 39,000  Level Memphis Center
03:11PM 34.8842 -89.0989 101° East 522 601 39,000  Level Memphis Center
03:12PM 34.8572 -88.9222 100° East 530 610 39,000  Level Memphis Center
03:13PM 34.8300 -88.7531 101° East 525 604 39,000  Level Memphis Center
03:14PM 34.8047 -88.5739 100° East 525 604 39,000  Level Memphis Center
03:15PM 34.7772 -88.4103 102° East 512 589 39,000  Level Memphis Center
03:16PM 34.7492 -88.2364 101° East 512 589 39,000  Level Memphis Center
03:17PM 34.7211 -88.0706 102° East 531 611 39,000  Level Memphis Center
03:18PM 34.6950 -87.8969 100° East 532 612 39,000 -540 Level Memphis Center
03:19PM 34.6642 -87.7211 102° East 532 612 38,000 -2,040 Descending Memphis Center
03:20PM 34.6397 -87.5500 100° East 527 606 35,000 -2,520 Descending Memphis Center
03:21PM 34.6039 -87.3622 103° East 522 601 33,000 -1,260 Descending Memphis Center
03:22PM 34.5928 -87.2786 99° East 520 598 33,000  Level Atlanta Center
03:23PM 34.5572 -87.1133 105° East 508 585 33,000  Level Atlanta Center
03:24PM 34.5258 -86.9433 103° East 508 585 33,000  Level Atlanta Center
03:25PM 34.4944 -86.7708 102° East 508 585 33,000  Level Atlanta Center
03:26PM 34.4625 -86.6111 104° East 503 579 33,000  Level Atlanta Center
03:27PM 34.4153 -86.4586 111° Southeast 491 565 33,000 -540 Level Atlanta Center
03:28PM 34.3661 -86.3111 112° Southeast 480 552 32,000 -960 Descending Atlanta Center
03:29PM 34.3167 -86.1564 111° Southeast 475 547 31,100 -1,560 Descending Atlanta Center
03:30PM 34.2689 -86.0069 111° Southeast 475 547 28,900 -1,980 Descending Atlanta Center
03:31PM 34.2211 -85.8653 112° Southeast 475 547 27,200 -2,700 Descending Atlanta Center
03:32PM 34.1669 -85.7058 112° Southeast 469 540 23,600 -3,360 Descending Atlanta Center
03:33PM 34.1167 -85.5594 112° Southeast 469 540 20,500 -2,820 Descending Atlanta Center
03:34PM 34.0664 -85.4131 112° Southeast 469 540 18,000 -2,640 Descending Atlanta Center
03:35PM 34.0217 -85.2819 112° Southeast 447 514 15,300 -2,460 Descending Atlanta Center
03:36PM 33.9792 -85.1511 111° Southeast 427 491 13,100 -1,440 Descending Atlanta Center
03:37PM 33.9342 -85.0453 117° Southeast 374 430 12,500 -600 Descending Atlanta Center
03:38PM 33.8808 -84.9372 121° Southeast 363 418 12,000 -300 Descending Atlanta Center
03:39PM 33.8103 -84.8489 134° Southeast 368 423 12,000  Level Atlanta Center
03:39PM 33.7833 -84.8000 124° Southeast 376 433 12,000  Level Atlanta TRACON
03:40PM 33.7000 -84.7167 140° Southeast 372 428 12,000  Level Atlanta TRACON
03:41PM 33.6333 -84.6333 134° Southeast 377 434 12,000  Level Atlanta TRACON
03:42PM 33.5667 -84.5333 129° Southeast 370 426 12,000 -180 Level Atlanta TRACON
03:43PM 33.5500 -84.4333 101° East 347 399 11,700 -900 Descending Atlanta TRACON
03:44PM 33.5500 -84.3333 90° East 292 336 10,300 -1,800 Descending Atlanta TRACON
03:45PM 33.5500 -84.2333 90° East 303 349 8,200 -2,040 Descending Atlanta TRACON
03:46PM 33.5500 -84.1333 90° East 300 345 6,300 -1,740 Descending Atlanta TRACON
03:47PM 33.5500 -84.0333 90° East 293 337 4,900 -1,260 Descending Atlanta TRACON
03:48PM 33.5667 -83.9667 73° East 267 307 4,000 -480 Descending Atlanta TRACON
03:49PM 33.6000 -83.9833 337° Northwest 163 188 4,000  Level Atlanta TRACON
03:50PM 33.6167 -84.0333 292° West 166 191 4,000  Level Atlanta TRACON
03:51PM 33.6167 -84.0833 270° West 171 197 4,000  Level Atlanta TRACON
03:52PM 33.6167 -84.1500 270° West 170 196 4,000  Level Atlanta TRACON
03:53PM 33.6167 -84.2000 270° West 162 186 4,000 -180 Level Atlanta TRACON
03:54PM 33.6167 -84.2500 270° West 166 191 3,700 -600 Descending Atlanta TRACON
03:55PM 33.6167 -84.3167 270° West 169 194 2,800 -900 Descending Atlanta TRACON
03:56PM 33.6167 -84.3667 270° West 159 183 1,900 -840 Descending Atlanta TRACON
03:57PM 33.6167 -84.4000 270° West 134 154 1,300 -660 Descending Atlanta TRACON
03:59PM 33.6333 -84.4167 North  Level FlightAware Approximate